Time;durP1;ratioP1;P1;durP2;ratioP2;P2;SDS_P1;SDS_P2;PMS_P1;PMS_P2;Temp;Humidity;BMP_temperature;BMP_pressure;BME280_temperature;BME280_humidity;BME280_pressure;Samples;Min_cycle;Max_cycle;Signal;HPM_P1;HPM_P2
2023/01/31 00:00:01;;;;;;;70.40;36.70;;;;;;;;;;1048241;28;20028;-77
2023/01/31 00:00:32;;;;;;;81.28;37.63;;;;;;;;;;1048140;28;20115;-78
2023/01/31 00:01:06;;;;;;;76.90;35.63;;;;;;;;;;1048224;28;20025;-78
2023/01/31 00:01:39;;;;;;;85.15;35.00;;;;;;;;;;1047416;28;20086;-77
2023/01/31 00:02:09;;;;;;;77.88;31.33;;;;;;;;;;1048244;28;20543;-77
2023/01/31 00:02:40;;;;;;;77.72;33.35;;;;;;;;;;1048435;28;20020;-77
2023/01/31 00:03:10;;;;;;;84.40;37.67;;;;;;;;;;1048633;28;20115;-77
2023/01/31 00:03:42;;;;;;;65.18;34.45;;;;;;;;;;1048249;28;20025;-78
2023/01/31 00:04:12;;;;;;;74.85;33.65;;;;;;;;;;1048208;28;20472;-77
2023/01/31 00:04:43;;;;;;;75.32;36.17;;;;;;;;;;1046986;28;20111;-77
2023/01/31 00:05:13;;;;;;;76.75;32.25;;;;;;;;;;1046738;28;20111;-78
2023/01/31 00:05:44;;;;;;;79.57;34.22;;;;;;;;;;1044082;28;20032;-77
2023/01/31 00:06:19;;;;;;;84.25;38.45;;;;;;;;;;1043683;28;20021;-77
2023/01/31 00:06:50;;;;;;;92.72;38.70;;;;;;;;;;1044690;28;20392;-77
2023/01/31 00:07:21;;;;;;;87.78;37.60;;;;;;;;;;1044045;28;20013;-76
2023/01/31 00:07:51;;;;;;;76.53;32.85;;;;;;;;;;1044551;28;20522;-77
2023/01/31 00:08:22;;;;;;;78.78;34.10;;;;;;;;;;1048418;28;20013;-77
2023/01/31 00:08:53;;;;;;;87.97;37.53;;;;;;;;;;1048404;28;20020;-77
2023/01/31 00:09:23;;;;;;;79.55;34.40;;;;;;;;;;1048681;28;20109;-78
2023/01/31 00:09:54;;;;;;;77.97;33.45;;;;;;;;;;1048643;28;20549;-77
2023/01/31 00:10:24;;;;;;;77.10;33.40;;;;;;;;;;1048731;28;20056;-77
2023/01/31 00:10:57;;;;;;;67.40;31.83;;;;;;;;;;1048665;28;20139;-77
2023/01/31 00:11:28;;;;;;;66.05;28.02;;;;;;;;;;1048460;28;20552;-78
2023/01/31 00:11:59;;;;;;;74.82;33.40;;;;;;;;;;1047293;28;20019;-77
2023/01/31 00:12:29;;;;;;;72.47;33.13;;;;;;;;;;1048720;28;20550;-77
2023/01/31 00:12:59;;;;;;;70.55;32.33;;;;;;;;;;1048271;28;20031;-78
2023/01/31 00:13:30;;;;;;;69.80;31.15;;;;;;;;;;1048327;28;20035;-77
2023/01/31 00:14:02;;;;;;;69.53;30.48;;;;;;;;;;1048447;28;20025;-77
2023/01/31 00:14:33;;;;;;;71.60;33.60;;;;;;;;;;1044230;28;20138;-77
2023/01/31 00:15:04;;;;;;;68.50;29.85;;;;;;;;;;1048308;28;20115;-77
2023/01/31 00:15:34;;;;;;;87.28;32.20;;;;;;;;;;1048237;28;20492;-78
2023/01/31 00:16:05;;;;;;;66.72;30.17;;;;;;;;;;1044265;28;20012;-78
2023/01/31 00:16:36;;;;;;;78.75;30.88;;;;;;;;;;1048305;28;20009;-78
2023/01/31 00:17:06;;;;;;;65.68;31.00;;;;;;;;;;1047298;28;20537;-77
2023/01/31 00:17:37;;;;;;;55.40;28.33;;;;;;;;;;1048404;28;20017;-77
2023/01/31 00:18:07;;;;;;;78.72;33.22;;;;;;;;;;1048629;28;20047;-77
2023/01/31 00:18:38;;;;;;;78.93;31.48;;;;;;;;;;1048574;28;20111;-77
2023/01/31 00:19:08;;;;;;;76.32;32.58;;;;;;;;;;1048400;28;20119;-78
2023/01/31 00:19:39;;;;;;;70.75;33.28;;;;;;;;;;1048442;28;20480;-77
2023/01/31 00:20:10;;;;;;;71.93;29.25;;;;;;;;;;1048541;28;20115;-78
2023/01/31 00:20:41;;;;;;;64.22;29.10;;;;;;;;;;1048574;28;20032;-77
2023/01/31 00:21:30;;;;;;;69.30;29.77;;;;;;;;;;1048181;28;20434;-77
2023/01/31 00:22:00;;;;;;;66.47;31.20;;;;;;;;;;1047125;28;20056;-77
2023/01/31 00:22:30;;;;;;;79.40;31.52;;;;;;;;;;1048181;28;20020;-77
2023/01/31 00:23:01;;;;;;;76.63;33.35;;;;;;;;;;1048536;28;20028;-77
2023/01/31 00:23:31;;;;;;;80.05;36.10;;;;;;;;;;1048544;28;20020;-77
2023/01/31 00:24:04;;;;;;;76.50;32.90;;;;;;;;;;1048489;28;20028;-78
2023/01/31 00:24:34;;;;;;;69.00;32.58;;;;;;;;;;1048765;28;20025;-77
2023/01/31 00:25:05;;;;;;;81.57;33.97;;;;;;;;;;1048077;28;20065;-77
2023/01/31 00:25:36;;;;;;;89.95;32.22;;;;;;;;;;1048589;28;20028;-77
2023/01/31 00:26:16;;;;;;;86.97;34.97;;;;;;;;;;1048171;28;20076;-77
2023/01/31 00:26:47;;;;;;;85.90;35.10;;;;;;;;;;1048041;28;20024;-77
2023/01/31 00:27:18;;;;;;;76.85;33.40;;;;;;;;;;1047881;28;20104;-77
2023/01/31 00:27:49;;;;;;;82.80;33.92;;;;;;;;;;1048246;28;20028;-78
2023/01/31 00:28:19;;;;;;;70.03;31.60;;;;;;;;;;1048260;28;20024;-77
2023/01/31 00:28:51;;;;;;;62.45;30.42;;;;;;;;;;1047112;28;20388;-77
2023/01/31 00:29:22;;;;;;;55.17;27.60;;;;;;;;;;1047246;28;20032;-78
2023/01/31 00:29:52;;;;;;;64.50;28.63;;;;;;;;;;1046156;28;20159;-78
2023/01/31 00:30:23;;;;;;;55.13;28.05;;;;;;;;;;1044842;28;20032;-78
2023/01/31 00:30:53;;;;;;;74.00;32.75;;;;;;;;;;1046325;28;20009;-78
2023/01/31 00:31:25;;;;;;;69.97;29.80;;;;;;;;;;1048227;28;20017;-77
2023/01/31 00:31:55;;;;;;;57.80;28.20;;;;;;;;;;1048505;28;20032;-77
2023/01/31 00:32:26;;;;;;;60.17;31.20;;;;;;;;;;1048183;28;20538;-78
2023/01/31 00:32:56;;;;;;;54.72;26.52;;;;;;;;;;1048110;28;20503;-77
2023/01/31 00:33:27;;;;;;;53.97;28.83;;;;;;;;;;1048119;28;20012;-77
2023/01/31 00:33:57;;;;;;;51.83;26.58;;;;;;;;;;1048304;28;20504;-77
2023/01/31 00:34:28;;;;;;;48.50;26.30;;;;;;;;;;1048523;28;20074;-77
2023/01/31 00:34:58;;;;;;;58.22;28.33;;;;;;;;;;1048448;28;20020;-77
2023/01/31 00:35:29;;;;;;;59.75;29.70;;;;;;;;;;1048472;28;20522;-77
2023/01/31 00:36:02;;;;;;;48.15;26.42;;;;;;;;;;1048155;28;20020;-77
2023/01/31 00:36:33;;;;;;;50.20;25.00;;;;;;;;;;1048541;28;20059;-77
2023/01/31 00:37:04;;;;;;;47.92;28.35;;;;;;;;;;1048216;28;20020;-77
2023/01/31 00:37:34;;;;;;;56.45;25.67;;;;;;;;;;1048280;28;20028;-77
2023/01/31 00:38:04;;;;;;;60.92;27.15;;;;;;;;;;1047489;28;20021;-77
2023/01/31 00:38:35;;;;;;;53.75;26.23;;;;;;;;;;1047631;28;20017;-77
2023/01/31 00:39:06;;;;;;;65.28;29.67;;;;;;;;;;1048583;28;20491;-77
2023/01/31 00:39:37;;;;;;;61.50;29.92;;;;;;;;;;1047991;28;20020;-77
2023/01/31 00:40:08;;;;;;;53.58;26.92;;;;;;;;;;1048309;28;20044;-77
2023/01/31 00:40:38;;;;;;;54.95;26.15;;;;;;;;;;1047731;28;20477;-77
2023/01/31 00:41:09;;;;;;;53.97;23.48;;;;;;;;;;1048275;28;20111;-77
2023/01/31 00:41:40;;;;;;;50.97;26.30;;;;;;;;;;1048441;28;20060;-77
2023/01/31 00:42:10;;;;;;;55.17;25.65;;;;;;;;;;1048042;28;20031;-77
2023/01/31 00:42:42;;;;;;;44.05;25.05;;;;;;;;;;1048176;28;20025;-78
2023/01/31 00:43:13;;;;;;;54.80;29.08;;;;;;;;;;1043041;28;20025;-77
2023/01/31 00:43:43;;;;;;;55.38;26.50;;;;;;;;;;1044155;28;20020;-77
2023/01/31 00:44:13;;;;;;;60.70;28.23;;;;;;;;;;1040050;28;20018;-77
2023/01/31 00:44:44;;;;;;;54.65;26.70;;;;;;;;;;1043980;28;20024;-77
2023/01/31 00:45:15;;;;;;;49.47;25.13;;;;;;;;;;1048125;28;20020;-77
2023/01/31 00:45:45;;;;;;;61.65;30.25;;;;;;;;;;1048200;28;20036;-77
2023/01/31 00:46:16;;;;;;;60.80;29.40;;;;;;;;;;1048448;28;20031;-77
2023/01/31 00:46:47;;;;;;;64.10;30.88;;;;;;;;;;1048907;28;20020;-77
2023/01/31 00:47:17;;;;;;;71.10;31.20;;;;;;;;;;1048243;28;20500;-77
2023/01/31 00:47:48;;;;;;;69.25;33.22;;;;;;;;;;1048447;28;20127;-77
2023/01/31 00:48:18;;;;;;;59.90;32.25;;;;;;;;;;1048508;28;20051;-77
2023/01/31 00:48:49;;;;;;;65.10;34.20;;;;;;;;;;1048210;28;20031;-77
2023/01/31 00:49:19;;;;;;;57.08;31.40;;;;;;;;;;1047509;28;20017;-77
2023/01/31 00:49:50;;;;;;;62.55;31.88;;;;;;;;;;1047416;28;20021;-77
2023/01/31 00:50:21;;;;;;;62.03;29.40;;;;;;;;;;1048103;28;20024;-77
2023/01/31 00:50:51;;;;;;;58.42;30.73;;;;;;;;;;1048274;28;20064;-77
2023/01/31 00:51:23;;;;;;;56.40;28.70;;;;;;;;;;1048006;28;20028;-77
2023/01/31 00:51:54;;;;;;;64.97;32.42;;;;;;;;;;1048061;28;20079;-77
2023/01/31 00:52:24;;;;;;;69.82;32.33;;;;;;;;;;1046906;28;20127;-77
2023/01/31 00:52:55;;;;;;;60.05;30.50;;;;;;;;;;1048125;28;20474;-77
2023/01/31 00:53:25;;;;;;;61.22;28.38;;;;;;;;;;1047884;28;20027;-77
2023/01/31 00:53:56;;;;;;;59.50;27.23;;;;;;;;;;1048109;28;20387;-77
2023/01/31 00:54:26;;;;;;;52.35;27.98;;;;;;;;;;1047994;28;20024;-77
2023/01/31 00:54:57;;;;;;;50.90;25.52;;;;;;;;;;1047937;28;20173;-77
2023/01/31 00:55:27;;;;;;;54.75;27.48;;;;;;;;;;1048160;28;20500;-77
2023/01/31 00:56:03;;;;;;;53.03;24.77;;;;;;;;;;1048040;28;20028;-77
2023/01/31 00:56:33;;;;;;;54.35;28.42;;;;;;;;;;1048311;28;20056;-78
2023/01/31 00:57:04;;;;;;;55.13;26.58;;;;;;;;;;1048497;28;20065;-77
2023/01/31 00:57:34;;;;;;;56.25;26.15;;;;;;;;;;1046769;28;20101;-78
2023/01/31 00:58:04;;;;;;;63.17;29.05;;;;;;;;;;1048170;28;20020;-77
2023/01/31 00:58:35;;;;;;;51.88;27.05;;;;;;;;;;1046991;28;20062;-77
2023/01/31 00:59:07;;;;;;;62.50;30.23;;;;;;;;;;1048092;28;20016;-78
2023/01/31 00:59:37;;;;;;;58.88;30.10;;;;;;;;;;1048232;28;20020;-77
2023/01/31 01:00:08;;;;;;;64.60;30.40;;;;;;;;;;1047926;28;20370;-77
2023/01/31 01:00:39;;;;;;;69.13;27.88;;;;;;;;;;1047938;28;20029;-77
2023/01/31 01:01:11;;;;;;;57.70;31.33;;;;;;;;;;1048198;28;20037;-77
2023/01/31 01:01:41;;;;;;;62.72;28.70;;;;;;;;;;1048142;28;20359;-77
2023/01/31 01:02:12;;;;;;;66.03;32.40;;;;;;;;;;1048117;28;20040;-77
2023/01/31 01:02:42;;;;;;;86.43;32.28;;;;;;;;;;1048321;28;20056;-77
2023/01/31 01:03:13;;;;;;;54.15;31.17;;;;;;;;;;1047985;28;20441;-78
2023/01/31 01:03:44;;;;;;;68.10;33.97;;;;;;;;;;1048109;28;20071;-78
2023/01/31 01:04:14;;;;;;;77.88;33.17;;;;;;;;;;1047501;28;20047;-77
2023/01/31 01:04:45;;;;;;;70.35;32.55;;;;;;;;;;1048098;28;20016;-77
2023/01/31 01:05:15;;;;;;;80.22;34.10;;;;;;;;;;1047665;28;20070;-77
2023/01/31 01:05:46;;;;;;;62.30;32.15;;;;;;;;;;1047530;28;20052;-77
2023/01/31 01:06:17;;;;;;;84.75;38.92;;;;;;;;;;1047665;28;20527;-77
2023/01/31 01:06:49;;;;;;;62.60;36.75;;;;;;;;;;1047662;28;20021;-77
2023/01/31 01:07:19;;;;;;;73.93;36.60;;;;;;;;;;1047764;28;20025;-77
2023/01/31 01:07:50;;;;;;;72.60;36.58;;;;;;;;;;1048062;28;20472;-77
2023/01/31 01:08:20;;;;;;;67.53;35.40;;;;;;;;;;1048070;28;20035;-77
2023/01/31 01:08:51;;;;;;;62.08;32.63;;;;;;;;;;1048300;28;20103;-77
2023/01/31 01:09:22;;;;;;;77.57;33.83;;;;;;;;;;1048244;28;20447;-77
2023/01/31 01:09:53;;;;;;;61.85;32.30;;;;;;;;;;1048385;28;20026;-77
2023/01/31 01:10:23;;;;;;;61.95;30.88;;;;;;;;;;1048462;28;20035;-77
2023/01/31 01:10:54;;;;;;;73.60;33.20;;;;;;;;;;1046966;28;20025;-77
2023/01/31 01:11:27;;;;;;;75.47;35.00;;;;;;;;;;1045503;28;20026;-77
2023/01/31 01:11:58;;;;;;;72.43;34.38;;;;;;;;;;1045545;28;20405;-77
2023/01/31 01:12:28;;;;;;;62.97;32.30;;;;;;;;;;1045740;28;20020;-77
2023/01/31 01:12:59;;;;;;;73.70;36.33;;;;;;;;;;1048263;28;20476;-77
2023/01/31 01:13:29;;;;;;;102.97;44.97;;;;;;;;;;1048132;28;20017;-77
2023/01/31 01:14:00;;;;;;;106.15;43.78;;;;;;;;;;1048482;28;20067;-77
2023/01/31 01:14:30;;;;;;;79.85;39.00;;;;;;;;;;1047930;28;20238;-77
2023/01/31 01:15:01;;;;;;;76.35;34.30;;;;;;;;;;1047880;28;20012;-77
2023/01/31 01:15:31;;;;;;;81.90;35.72;;;;;;;;;;1047728;28;20016;-77
2023/01/31 01:16:03;;;;;;;98.43;44.63;;;;;;;;;;1047082;28;20538;-77
2023/01/31 01:16:36;;;;;;;101.72;48.85;;;;;;;;;;1047619;28;20435;-77
2023/01/31 01:17:06;;;;;;;106.68;55.40;;;;;;;;;;1046343;28;20066;-78
2023/01/31 01:17:36;;;;;;;126.97;61.80;;;;;;;;;;1043971;28;20034;-78
2023/01/31 01:18:07;;;;;;;101.97;55.03;;;;;;;;;;1044424;28;20059;-77
2023/01/31 01:18:38;;;;;;;101.22;51.60;;;;;;;;;;1048167;28;20138;-77
2023/01/31 01:19:14;;;;;;;104.60;52.78;;;;;;;;;;1048052;28;20360;-77
2023/01/31 01:19:44;;;;;;;96.97;46.22;;;;;;;;;;1047094;28;20029;-77
2023/01/31 01:20:15;;;;;;;106.47;51.25;;;;;;;;;;1047694;28;20024;-77
2023/01/31 01:20:45;;;;;;;90.80;44.88;;;;;;;;;;1047640;28;20029;-77
2023/01/31 01:21:17;;;;;;;111.82;48.67;;;;;;;;;;1047223;28;21570;-77
2023/01/31 01:21:48;;;;;;;96.72;45.50;;;;;;;;;;1047631;28;20024;-77
2023/01/31 01:22:18;;;;;;;105.97;48.30;;;;;;;;;;1047893;28;20111;-77
2023/01/31 01:22:49;;;;;;;112.53;47.30;;;;;;;;;;1048129;28;20590;-77
2023/01/31 01:23:19;;;;;;;112.47;49.58;;;;;;;;;;1047729;28;20024;-78
2023/01/31 01:23:50;;;;;;;115.03;51.65;;;;;;;;;;1046951;28;20361;-78
2023/01/31 01:24:21;;;;;;;113.30;52.53;;;;;;;;;;1046959;28;20066;-77
2023/01/31 01:24:51;;;;;;;114.35;54.38;;;;;;;;;;1040758;28;20414;-77
2023/01/31 01:25:22;;;;;;;123.22;54.80;;;;;;;;;;1041987;28;20547;-77
2023/01/31 01:25:52;;;;;;;157.60;61.35;;;;;;;;;;1041520;28;21868;-77
2023/01/31 01:26:25;;;;;;;155.13;63.38;;;;;;;;;;1042845;28;20043;-78
2023/01/31 01:26:56;;;;;;;133.32;60.15;;;;;;;;;;1044671;28;20052;-77
2023/01/31 01:27:27;;;;;;;136.60;60.92;;;;;;;;;;1046908;28;20053;-78
2023/01/31 01:27:57;;;;;;;151.93;66.53;;;;;;;;;;1043261;28;20152;-77
2023/01/31 01:28:28;;;;;;;140.48;60.45;;;;;;;;;;1042663;28;20020;-77
2023/01/31 01:28:59;;;;;;;149.40;61.70;;;;;;;;;;1046283;28;20059;-78
2023/01/31 01:29:30;;;;;;;140.82;59.72;;;;;;;;;;1046051;28;20024;-77
2023/01/31 01:30:00;;;;;;;132.82;57.25;;;;;;;;;;1047619;28;20012;-77
2023/01/31 01:30:31;;;;;;;138.57;60.88;;;;;;;;;;1046111;28;20029;-78
2023/01/31 01:31:06;;;;;;;146.25;59.83;;;;;;;;;;1046632;28;20496;-77
2023/01/31 01:31:37;;;;;;;136.75;63.72;;;;;;;;;;1045830;28;20036;-77
2023/01/31 01:32:07;;;;;;;150.60;69.97;;;;;;;;;;1042263;28;20036;-77
2023/01/31 01:32:38;;;;;;;181.23;77.93;;;;;;;;;;1043277;28;20029;-77
2023/01/31 01:33:09;;;;;;;193.27;88.30;;;;;;;;;;1043022;28;20032;-77
2023/01/31 01:33:39;;;;;;;230.02;102.03;;;;;;;;;;1042441;28;20021;-77
2023/01/31 01:34:11;;;;;;;232.43;111.35;;;;;;;;;;1046571;28;20617;-77
2023/01/31 01:34:42;;;;;;;225.50;105.70;;;;;;;;;;1045757;28;20016;-77
2023/01/31 01:35:12;;;;;;;232.88;103.25;;;;;;;;;;1042255;28;20029;-77
2023/01/31 01:35:43;;;;;;;242.23;103.22;;;;;;;;;;1042271;28;21005;-77
2023/01/31 01:36:16;;;;;;;198.82;91.65;;;;;;;;;;1045389;28;20508;-78
2023/01/31 01:36:46;;;;;;;219.48;89.50;;;;;;;;;;1041194;28;20024;-77
2023/01/31 01:37:19;;;;;;;199.00;91.53;;;;;;;;;;1043044;28;20143;-77
2023/01/31 01:37:50;;;;;;;208.55;88.05;;;;;;;;;;1046233;28;20043;-77
2023/01/31 01:38:20;;;;;;;202.07;78.65;;;;;;;;;;1041295;28;20052;-77
2023/01/31 01:38:51;;;;;;;178.82;73.75;;;;;;;;;;1046956;28;20028;-77
2023/01/31 01:39:22;;;;;;;159.65;71.82;;;;;;;;;;1042720;28;20036;-77
2023/01/31 01:39:52;;;;;;;158.18;71.32;;;;;;;;;;1043045;28;20032;-78
2023/01/31 01:40:23;;;;;;;146.02;68.00;;;;;;;;;;1047655;28;20027;-78
2023/01/31 01:40:53;;;;;;;165.18;68.88;;;;;;;;;;1043320;28;20457;-77
2023/01/31 01:41:24;;;;;;;150.50;66.63;;;;;;;;;;1047050;28;20032;-78
2023/01/31 01:41:54;;;;;;;176.38;72.60;;;;;;;;;;1046447;28;20527;-78
2023/01/31 01:42:26;;;;;;;184.73;73.57;;;;;;;;;;1044711;28;20123;-77
2023/01/31 01:42:57;;;;;;;187.95;82.75;;;;;;;;;;1045589;28;20058;-78
2023/01/31 01:43:47;;;;;;;173.07;70.85;;;;;;;;;;1044593;28;20051;-78
2023/01/31 01:44:36;;;;;;;204.27;78.88;;;;;;;;;;1039258;28;20038;-78
2023/01/31 01:45:14;;;;;;;204.95;78.57;;;;;;;;;;1047133;28;20016;-77
2023/01/31 01:45:45;;;;;;;205.38;78.50;;;;;;;;;;1046397;28;20025;-77
2023/01/31 01:46:34;;;;;;;200.23;82.53;;;;;;;;;;1046395;28;20131;-77
2023/01/31 01:47:08;;;;;;;182.52;72.75;;;;;;;;;;1044418;28;20794;-78
2023/01/31 01:47:41;;;;;;;173.13;76.38;;;;;;;;;;1045179;28;20025;-78
2023/01/31 01:48:14;;;;;;;181.75;73.05;;;;;;;;;;1043465;28;20600;-77
2023/01/31 01:48:47;;;;;;;189.45;76.35;;;;;;;;;;1044382;28;20040;-77
2023/01/31 01:49:19;;;;;;;211.82;79.40;;;;;;;;;;1044655;28;20525;-77
2023/01/31 01:49:56;;;;;;;232.77;84.35;;;;;;;;;;1046885;28;20499;-77
2023/01/31 01:50:29;;;;;;;206.07;79.07;;;;;;;;;;1047465;28;20020;-77
2023/01/31 01:51:02;;;;;;;216.00;79.63;;;;;;;;;;1046626;28;20035;-78
2023/01/31 01:51:33;;;;;;;186.65;77.80;;;;;;;;;;1046568;28;20094;-77
2023/01/31 01:52:05;;;;;;;193.55;79.03;;;;;;;;;;1045706;28;20013;-77
2023/01/31 01:52:39;;;;;;;207.05;80.18;;;;;;;;;;1044370;28;20032;-77
2023/01/31 01:53:17;;;;;;;181.43;73.45;;;;;;;;;;1044730;28;20013;-78
2023/01/31 01:53:50;;;;;;;180.82;68.75;;;;;;;;;;1044870;28;20036;-77
2023/01/31 01:54:25;;;;;;;188.38;74.22;;;;;;;;;;1046908;28;20033;-77
2023/01/31 01:54:59;;;;;;;168.15;70.97;;;;;;;;;;1045577;28;20025;-77
2023/01/31 01:55:34;;;;;;;153.40;63.95;;;;;;;;;;1046738;28;20025;-77
2023/01/31 01:56:10;;;;;;;171.13;69.88;;;;;;;;;;1046589;28;20432;-77
2023/01/31 01:56:41;;;;;;;183.88;76.50;;;;;;;;;;1046870;28;20055;-77
2023/01/31 01:57:14;;;;;;;198.18;79.90;;;;;;;;;;1041990;28;20056;-77
2023/01/31 01:57:46;;;;;;;161.10;66.57;;;;;;;;;;1041860;28;20021;-78
2023/01/31 01:58:20;;;;;;;189.35;76.80;;;;;;;;;;1043432;28;20060;-77
2023/01/31 01:58:56;;;;;;;197.77;76.82;;;;;;;;;;1043065;28;20698;-77
2023/01/31 01:59:33;;;;;;;183.85;71.07;;;;;;;;;;1045376;28;20025;-77
2023/01/31 02:00:03;;;;;;;186.23;73.18;;;;;;;;;;1042650;28;20684;-77
2023/01/31 02:00:35;;;;;;;146.70;59.15;;;;;;;;;;1045056;28;20154;-77
2023/01/31 02:01:06;;;;;;;133.20;57.92;;;;;;;;;;1045831;28;20125;-78
2023/01/31 02:01:37;;;;;;;126.60;54.63;;;;;;;;;;1043228;28;20064;-78
2023/01/31 02:02:08;;;;;;;140.55;58.67;;;;;;;;;;1042946;28;20188;-77
2023/01/31 02:02:38;;;;;;;144.73;60.83;;;;;;;;;;1043140;28;20441;-77
2023/01/31 02:03:09;;;;;;;160.23;70.25;;;;;;;;;;1038247;28;20079;-77
2023/01/31 02:03:40;;;;;;;117.28;51.75;;;;;;;;;;1042531;28;20047;-77
2023/01/31 02:04:12;;;;;;;122.72;48.33;;;;;;;;;;1047037;28;20032;-78
2023/01/31 02:04:44;;;;;;;95.53;42.80;;;;;;;;;;1043416;28;20021;-77
2023/01/31 02:05:18;;;;;;;79.22;39.65;;;;;;;;;;1047145;28;20024;-77
2023/01/31 02:05:53;;;;;;;100.75;44.78;;;;;;;;;;1046711;28;20021;-77
2023/01/31 02:06:23;;;;;;;93.03;41.50;;;;;;;;;;1046494;28;20046;-77
2023/01/31 02:06:54;;;;;;;82.55;39.30;;;;;;;;;;1046285;28;20122;-77
2023/01/31 02:07:25;;;;;;;85.00;37.28;;;;;;;;;;1047205;28;20491;-78
2023/01/31 02:07:56;;;;;;;81.82;39.42;;;;;;;;;;1045595;28;20488;-78
2023/01/31 02:08:29;;;;;;;74.90;36.10;;;;;;;;;;1043086;28;20206;-78
2023/01/31 02:08:59;;;;;;;82.35;35.95;;;;;;;;;;1039226;28;20044;-77
2023/01/31 02:09:48;;;;;;;77.28;36.15;;;;;;;;;;1043154;28;20576;-78
2023/01/31 02:10:29;;;;;;;73.72;35.00;;;;;;;;;;1043856;28;20078;-77
2023/01/31 02:11:02;;;;;;;79.32;37.05;;;;;;;;;;1046590;28;20036;-77
2023/01/31 02:11:33;;;;;;;63.03;31.70;;;;;;;;;;1046344;28;20161;-78
2023/01/31 02:12:03;;;;;;;88.45;34.90;;;;;;;;;;1043452;28;20029;-77
2023/01/31 02:12:34;;;;;;;73.80;35.65;;;;;;;;;;1046687;28;20086;-77
2023/01/31 02:13:05;;;;;;;80.95;37.28;;;;;;;;;;1041145;28;20024;-77
2023/01/31 02:13:36;;;;;;;77.82;36.65;;;;;;;;;;1043191;28;20131;-77
2023/01/31 02:14:08;;;;;;;90.93;43.40;;;;;;;;;;1046271;28;20028;-78
2023/01/31 02:14:40;;;;;;;71.22;32.67;;;;;;;;;;1046886;28;20062;-77
2023/01/31 02:15:11;;;;;;;94.70;35.47;;;;;;;;;;1045961;28;20147;-78
2023/01/31 02:15:41;;;;;;;81.43;39.75;;;;;;;;;;1046224;28;20024;-78
2023/01/31 02:16:12;;;;;;;71.22;35.58;;;;;;;;;;1047203;28;20404;-78
2023/01/31 02:16:42;;;;;;;75.18;36.90;;;;;;;;;;1047164;28;20392;-76
2023/01/31 02:17:14;;;;;;;76.55;34.58;;;;;;;;;;1047015;28;20395;-78
2023/01/31 02:17:44;;;;;;;82.93;41.03;;;;;;;;;;1045807;28;20039;-78
2023/01/31 02:18:15;;;;;;;77.28;36.35;;;;;;;;;;1046959;28;20021;-78
2023/01/31 02:18:47;;;;;;;80.68;38.15;;;;;;;;;;1046721;28;20085;-76
2023/01/31 02:19:37;;;;;;;84.57;38.22;;;;;;;;;;1046601;28;20029;-76
2023/01/31 02:20:08;;;;;;;82.82;37.30;;;;;;;;;;1031457;28;20045;-76
2023/01/31 02:21:01;;;;;;;103.45;42.63;;;;;;;;;;1047195;28;20020;-77
2023/01/31 02:21:38;;;;;;;102.90;46.58;;;;;;;;;;1041540;28;20025;-77
2023/01/31 02:22:29;;;;;;;73.90;33.03;;;;;;;;;;1045804;28;20075;-79
2023/01/31 02:23:09;;;;;;;86.80;40.28;;;;;;;;;;1035600;28;20037;-77
2023/01/31 02:23:52;;;;;;;66.97;32.20;;;;;;;;;;1045701;28;20770;-78
2023/01/31 02:24:41;;;;;;;74.93;33.60;;;;;;;;;;1047059;28;20044;-77
2023/01/31 02:25:27;;;;;;;70.10;30.15;;;;;;;;;;1050338;28;20027;-77
2023/01/31 02:26:00;;;;;;;97.97;43.55;;;;;;;;;;1046356;28;20103;-78
2023/01/31 02:26:37;;;;;;;102.80;43.28;;;;;;;;;;1045981;28;20025;-77
2023/01/31 02:27:19;;;;;;;81.07;42.05;;;;;;;;;;1046641;28;20028;-77
2023/01/31 02:28:08;;;;;;;82.93;36.28;;;;;;;;;;1048555;28;20515;-77
2023/01/31 02:28:47;;;;;;;99.07;43.22;;;;;;;;;;1051100;28;20537;-78
2023/01/31 02:29:36;;;;;;;86.97;42.65;;;;;;;;;;1046652;28;20032;-75
2023/01/31 02:30:24;;;;;;;79.70;42.03;;;;;;;;;;1045518;28;20021;-76
2023/01/31 02:30:55;;;;;;;77.47;37.95;;;;;;;;;;1044210;28;20472;-78
2023/01/31 02:31:28;;;;;;;93.35;37.85;;;;;;;;;;1046393;28;20028;-78
2023/01/31 02:32:18;;;;;;;79.53;33.50;;;;;;;;;;1046871;28;20158;-77
2023/01/31 02:32:48;;;;;;;80.38;36.75;;;;;;;;;;1046811;28;20020;-77
2023/01/31 02:33:22;;;;;;;85.35;37.85;;;;;;;;;;1045706;28;20051;-77
2023/01/31 02:33:58;;;;;;;81.93;39.75;;;;;;;;;;1046415;28;20504;-76
2023/01/31 02:34:43;;;;;;;85.88;39.97;;;;;;;;;;1046553;28;20642;-77
2023/01/31 02:35:36;;;;;;;92.50;39.38;;;;;;;;;;1046568;28;20032;-77
2023/01/31 02:36:25;;;;;;;105.53;42.55;;;;;;;;;;1042909;28;20155;-77
2023/01/31 02:36:58;;;;;;;104.93;43.97;;;;;;;;;;1045737;28;20411;-77
2023/01/31 02:37:52;;;;;;;116.00;49.97;;;;;;;;;;1045962;28;20024;-77
2023/01/31 02:38:22;;;;;;;115.15;49.25;;;;;;;;;;1037910;28;20398;-77
2023/01/31 02:38:57;;;;;;;114.20;51.67;;;;;;;;;;1040972;28;20513;-77
2023/01/31 02:39:37;;;;;;;122.80;53.60;;;;;;;;;;1039945;28;20551;-77
2023/01/31 02:40:15;;;;;;;130.30;52.60;;;;;;;;;;1035997;28;20029;-78
2023/01/31 02:40:51;;;;;;;126.35;51.72;;;;;;;;;;1043484;28;20052;-78
2023/01/31 02:41:27;;;;;;;114.75;51.47;;;;;;;;;;1043893;28;20387;-78
2023/01/31 02:42:06;;;;;;;118.95;50.13;;;;;;;;;;1042597;28;20028;-77
2023/01/31 02:42:48;;;;;;;112.57;49.33;;;;;;;;;;1042499;28;20029;-77
2023/01/31 02:44:57;;;;;;;122.07;53.80;;;;;;;;;;1038783;28;20125;-77
2023/01/31 02:45:35;;;;;;;122.95;51.70;;;;;;;;;;1044610;28;20461;-78
2023/01/31 02:46:15;;;;;;;113.65;52.92;;;;;;;;;;1046371;28;20115;-78
2023/01/31 02:46:46;;;;;;;;;;;;;;;;;;1046724;28;20435;-78
2023/01/31 02:47:40;;;;;;;119.95;49.85;;;;;;;;;;1045780;28;19939;-77
2023/01/31 02:48:14;;;;;;;130.10;55.83;;;;;;;;;;1046821;28;20099;-76
2023/01/31 02:48:48;;;;;;;161.82;64.40;;;;;;;;;;1040341;28;20033;-78
2023/01/31 02:49:38;;;;;;;126.20;55.13;;;;;;;;;;1041194;28;20032;-78
2023/01/31 02:50:12;;;;;;;146.23;53.80;;;;;;;;;;1039427;28;20031;-78
2023/01/31 02:50:46;;;;;;;137.25;52.00;;;;;;;;;;1045951;28;20070;-78
2023/01/31 02:51:22;;;;;;;146.35;55.47;;;;;;;;;;1046605;28;20650;-78
2023/01/31 02:52:14;;;;;;;134.48;54.63;;;;;;;;;;1046196;28;20059;-77
2023/01/31 02:53:02;;;;;;;137.57;54.58;;;;;;;;;;1046073;28;20032;-77
2023/01/31 02:53:35;;;;;;;116.28;49.88;;;;;;;;;;1045758;28;20115;-76
2023/01/31 02:54:11;;;;;;;100.90;44.97;;;;;;;;;;1043110;28;20088;-78
2023/01/31 02:56:31;;;;;;;75.60;33.55;;;;;;;;;;1044416;28;20123;-78
2023/01/31 02:57:02;;;;;;;74.20;31.92;;;;;;;;;;1043651;28;20029;-77
2023/01/31 02:57:32;;;;;;;81.95;33.63;;;;;;;;;;1044253;28;20118;-77
2023/01/31 02:58:05;;;;;;;74.68;34.65;;;;;;;;;;1046349;28;20024;-78
2023/01/31 02:58:36;;;;;;;92.25;40.10;;;;;;;;;;1046958;28;20028;-77
2023/01/31 02:59:09;;;;;;;90.72;37.83;;;;;;;;;;1046567;28;20075;-77
2023/01/31 02:59:40;;;;;;;84.25;36.53;;;;;;;;;;1042294;28;20050;-78
2023/01/31 03:00:15;;;;;;;89.38;39.70;;;;;;;;;;1039817;28;20501;-78
2023/01/31 03:00:46;;;;;;;93.05;37.63;;;;;;;;;;1037865;28;20509;-78
2023/01/31 03:01:19;;;;;;;89.72;35.88;;;;;;;;;;1039567;28;20021;-79
2023/01/31 03:01:55;;;;;;;84.20;38.63;;;;;;;;;;1046579;28;20032;-78
2023/01/31 03:02:27;;;;;;;110.47;49.25;;;;;;;;;;1046149;28;20028;-77
2023/01/31 03:02:57;;;;;;;79.05;37.95;;;;;;;;;;1045767;28;20021;-77
2023/01/31 03:03:30;;;;;;;107.20;43.35;;;;;;;;;;1046623;28;20111;-79
2023/01/31 03:04:04;;;;;;;100.28;42.30;;;;;;;;;;1044981;28;20056;-77
2023/01/31 03:04:35;;;;;;;109.05;46.90;;;;;;;;;;1046706;28;20032;-77
2023/01/31 03:05:07;;;;;;;121.45;48.97;;;;;;;;;;1045579;28;20757;-76
2023/01/31 03:05:37;;;;;;;135.52;53.72;;;;;;;;;;1046489;28;20033;-77
2023/01/31 03:06:33;;;;;;;119.53;52.50;;;;;;;;;;1043340;28;20040;-77
2023/01/31 03:07:06;;;;;;;136.43;55.55;;;;;;;;;;1045758;28;20056;-77
2023/01/31 03:07:37;;;;;;;145.00;58.30;;;;;;;;;;1045100;28;20024;-77
2023/01/31 03:08:15;;;;;;;162.13;63.08;;;;;;;;;;1044654;28;20465;-77
2023/01/31 03:08:45;;;;;;;137.65;57.65;;;;;;;;;;1044736;28;20481;-77
2023/01/31 03:09:25;;;;;;;121.30;52.72;;;;;;;;;;1041448;28;20029;-77
2023/01/31 03:10:13;;;;;;;130.85;58.45;;;;;;;;;;1040848;28;20044;-77
2023/01/31 03:10:47;;;;;;;126.80;55.17;;;;;;;;;;1040570;28;20048;-77
2023/01/31 03:11:18;;;;;;;141.50;55.33;;;;;;;;;;1046688;28;20022;-77
2023/01/31 03:12:17;;;;;;;119.68;53.63;;;;;;;;;;1041927;28;20029;-77
2023/01/31 03:13:11;;;;;;;122.35;52.63;;;;;;;;;;1043859;28;20546;-76
2023/01/31 03:13:47;;;;;;;136.88;55.30;;;;;;;;;;1038755;28;20029;-76
2023/01/31 03:14:30;;;;;;;132.80;54.50;;;;;;;;;;1045453;28;20434;-78
2023/01/31 03:15:16;;;;;;;133.32;55.63;;;;;;;;;;1046883;28;20024;-77
2023/01/31 03:17:47;;;;;;;116.70;50.10;;;;;;;;;;1046538;28;20966;-77